Jacksonville Naval Air Station
KNIP : now visible

Airfield :











YOU CAN JOIN US ON...

 
LOGIN :

Register | Disclaimer

   EN    FR    IT 

 









Legend :    VFR   Marginal VFR   IFR   Intensive IFR   Very Intensive IFR
Visi :
Ceiling :
>= 8 km
>= 3000ft
5 to 8 km
1000 to 3000 ft
1500m to 5 km
500 to 1000 ft
800 to 1500m
200 to 500 ft
< 800m
< 200 ft
Symbols :   Thunderstorms  Fog  Heavy snow  Heavy precipitations  Wind > 20 kt






- Airport Elevation : 21 ft


KNIP - Jacksonville Naval Air Station

CURRENT METAR :
  • 220753Z 00000KT 10SM SCT200 BKN250 14/12 A3014 RMK AO2 SLP201 T01390122

EXPIRED METARs :
  • 220653Z 26004KT 9SM SCT200 BKN250 14/12 A3015 RMK AO2 SLP206 T01390117
  • 220553Z 00000KT 10SM SCT200 BKN250 16/13 A3017 RMK AO2 SLP210 T01560128 10167 20150 58015

TAF TAF KNIP
Valid from the 22 at 07:00 until the 23 at 07:00 UTC


2207/2307 VRB04KT 9999 SCT200 BKN250 QNH3010INS
TEMPO 2209/2212 3200 BR BKN002
FM221700 18008KT 9999 SCT040 BKN180 BKN250 QNH3004INS
FM230500 20006KT 9999 SKC QNH3000INS T16/2210Z T23/2219Z FN00216



MET'MAP, your aeronautical weather chart ! - Copyright ORBIFLY December 2007 - Disclaimer

ORBIFLY MET'MAP TEAM :

Programming & Development : Alexandra Zaïnal
Concept & Development : Baudouin d'Aumeries
Co-Development & Prog : Marc-Olivier Méhu
Technical & hardware support : Manuel Goepfert

Contact : metmap@orbifly.com




SOURCES & CREDITS :

   NOAA       Earth
Advisory